sensor_id;sensor_type;location;lat;lon;timestamp;P1;durP1;ratioP1;P2;durP2;ratioP2
60060;SDS011;45933;51.336;12.612;2023-05-18T00:01:28;8.33;;;2.17;;
60060;SDS011;45933;51.336;12.612;2023-05-18T00:03:54;10.03;;;2.60;;
60060;SDS011;45933;51.336;12.612;2023-05-18T00:06:21;6.27;;;1.70;;
60060;SDS011;45933;51.336;12.612;2023-05-18T00:08:49;12.20;;;3.13;;
60060;SDS011;45933;51.336;12.612;2023-05-18T00:11:15;7.00;;;2.17;;
60060;SDS011;45933;51.336;12.612;2023-05-18T00:13:41;7.97;;;2.30;;
60060;SDS011;45933;51.336;12.612;2023-05-18T00:16:06;6.83;;;2.30;;
60060;SDS011;45933;51.336;12.612;2023-05-18T00:18:31;7.20;;;2.27;;
60060;SDS011;45933;51.336;12.612;2023-05-18T00:20:58;13.23;;;2.33;;
60060;SDS011;45933;51.336;12.612;2023-05-18T00:23:24;8.73;;;2.17;;
60060;SDS011;45933;51.336;12.612;2023-05-18T00:25:53;6.87;;;2.00;;
60060;SDS011;45933;51.336;12.612;2023-05-18T00:28:22;5.00;;;2.13;;
60060;SDS011;45933;51.336;12.612;2023-05-18T00:30:48;6.50;;;2.07;;
60060;SDS011;45933;51.336;12.612;2023-05-18T00:33:13;7.43;;;2.30;;
60060;SDS011;45933;51.336;12.612;2023-05-18T00:35:38;7.00;;;1.83;;
60060;SDS011;45933;51.336;12.612;2023-05-18T00:38:03;8.67;;;2.20;;
60060;SDS011;45933;51.336;12.612;2023-05-18T00:40:29;5.83;;;1.83;;
60060;SDS011;45933;51.336;12.612;2023-05-18T00:42:54;7.47;;;2.20;;
60060;SDS011;45933;51.336;12.612;2023-05-18T00:45:19;7.23;;;2.10;;
60060;SDS011;45933;51.336;12.612;2023-05-18T00:47:45;8.83;;;1.93;;
60060;SDS011;45933;51.336;12.612;2023-05-18T00:50:11;10.87;;;2.50;;
60060;SDS011;45933;51.336;12.612;2023-05-18T00:52:37;6.37;;;2.17;;
60060;SDS011;45933;51.336;12.612;2023-05-18T00:55:02;6.13;;;2.33;;
60060;SDS011;45933;51.336;12.612;2023-05-18T00:57:28;8.40;;;2.10;;
60060;SDS011;45933;51.336;12.612;2023-05-18T00:59:54;7.23;;;2.20;;
60060;SDS011;45933;51.336;12.612;2023-05-18T01:02:20;5.57;;;1.80;;
60060;SDS011;45933;51.336;12.612;2023-05-18T01:04:46;8.33;;;2.30;;
60060;SDS011;45933;51.336;12.612;2023-05-18T01:07:11;4.80;;;1.80;;
60060;SDS011;45933;51.336;12.612;2023-05-18T01:09:40;7.67;;;2.10;;
60060;SDS011;45933;51.336;12.612;2023-05-18T01:12:11;5.53;;;1.73;;
60060;SDS011;45933;51.336;12.612;2023-05-18T01:26:28;6.07;;;2.03;;
60060;SDS011;45933;51.336;12.612;2023-05-18T01:28:56;5.67;;;1.93;;
60060;SDS011;45933;51.336;12.612;2023-05-18T01:31:23;6.83;;;2.00;;
60060;SDS011;45933;51.336;12.612;2023-05-18T01:33:49;8.17;;;1.90;;
60060;SDS011;45933;51.336;12.612;2023-05-18T01:36:15;4.80;;;1.90;;
60060;SDS011;45933;51.336;12.612;2023-05-18T01:38:40;6.47;;;1.90;;
60060;SDS011;45933;51.336;12.612;2023-05-18T01:43:41;11.60;;;2.20;;
60060;SDS011;45933;51.336;12.612;2023-05-18T01:49:10;7.67;;;1.90;;
60060;SDS011;45933;51.336;12.612;2023-05-18T01:51:43;6.50;;;1.80;;
60060;SDS011;45933;51.336;12.612;2023-05-18T01:54:10;7.87;;;1.80;;
60060;SDS011;45933;51.336;12.612;2023-05-18T01:56:39;7.60;;;2.33;;
60060;SDS011;45933;51.336;12.612;2023-05-18T01:59:06;4.53;;;1.93;;
60060;SDS011;45933;51.336;12.612;2023-05-18T02:01:32;8.80;;;1.80;;
60060;SDS011;45933;51.336;12.612;2023-05-18T02:03:57;4.67;;;1.83;;
60060;SDS011;45933;51.336;12.612;2023-05-18T02:06:22;8.07;;;2.03;;
60060;SDS011;45933;51.336;12.612;2023-05-18T02:08:48;5.07;;;1.80;;
60060;SDS011;45933;51.336;12.612;2023-05-18T02:11:13;4.07;;;1.70;;
60060;SDS011;45933;51.336;12.612;2023-05-18T02:13:38;8.53;;;1.97;;
60060;SDS011;45933;51.336;12.612;2023-05-18T02:16:04;4.43;;;1.90;;
60060;SDS011;45933;51.336;12.612;2023-05-18T02:18:30;8.50;;;2.03;;
60060;SDS011;45933;51.336;12.612;2023-05-18T02:20:58;5.87;;;2.00;;
60060;SDS011;45933;51.336;12.612;2023-05-18T02:23:24;8.13;;;2.03;;
60060;SDS011;45933;51.336;12.612;2023-05-18T02:25:50;4.50;;;1.53;;
60060;SDS011;45933;51.336;12.612;2023-05-18T02:28:15;6.43;;;2.30;;
60060;SDS011;45933;51.336;12.612;2023-05-18T02:30:40;8.53;;;2.30;;
60060;SDS011;45933;51.336;12.612;2023-05-18T02:33:06;6.53;;;1.70;;
60060;SDS011;45933;51.336;12.612;2023-05-18T02:35:33;4.73;;;1.60;;
60060;SDS011;45933;51.336;12.612;2023-05-18T02:37:58;6.40;;;1.67;;
60060;SDS011;45933;51.336;12.612;2023-05-18T02:40:24;6.50;;;2.20;;
60060;SDS011;45933;51.336;12.612;2023-05-18T02:42:49;7.53;;;2.13;;
60060;SDS011;45933;51.336;12.612;2023-05-18T02:45:15;9.97;;;1.77;;
60060;SDS011;45933;51.336;12.612;2023-05-18T02:47:40;6.13;;;1.80;;
60060;SDS011;45933;51.336;12.612;2023-05-18T02:50:07;5.10;;;1.90;;
60060;SDS011;45933;51.336;12.612;2023-05-18T02:52:33;5.87;;;2.00;;
60060;SDS011;45933;51.336;12.612;2023-05-18T02:54:59;7.00;;;1.80;;
60060;SDS011;45933;51.336;12.612;2023-05-18T02:57:24;6.87;;;2.00;;
60060;SDS011;45933;51.336;12.612;2023-05-18T02:59:49;4.67;;;1.80;;
60060;SDS011;45933;51.336;12.612;2023-05-18T03:02:14;7.30;;;2.10;;
60060;SDS011;45933;51.336;12.612;2023-05-18T03:04:40;6.73;;;2.00;;
60060;SDS011;45933;51.336;12.612;2023-05-18T03:07:06;8.60;;;2.40;;
60060;SDS011;45933;51.336;12.612;2023-05-18T03:09:32;6.43;;;1.90;;
60060;SDS011;45933;51.336;12.612;2023-05-18T03:11:57;5.93;;;1.97;;
60060;SDS011;45933;51.336;12.612;2023-05-18T03:14:22;6.47;;;1.70;;
60060;SDS011;45933;51.336;12.612;2023-05-18T03:16:48;6.73;;;1.77;;
60060;SDS011;45933;51.336;12.612;2023-05-18T03:19:17;6.07;;;1.80;;
60060;SDS011;45933;51.336;12.612;2023-05-18T03:21:43;7.47;;;1.80;;
60060;SDS011;45933;51.336;12.612;2023-05-18T03:24:08;7.87;;;2.10;;
60060;SDS011;45933;51.336;12.612;2023-05-18T03:26:33;5.37;;;1.80;;
60060;SDS011;45933;51.336;12.612;2023-05-18T03:28:59;8.97;;;2.00;;
60060;SDS011;45933;51.336;12.612;2023-05-18T03:31:25;5.37;;;1.60;;
60060;SDS011;45933;51.336;12.612;2023-05-18T03:33:50;4.87;;;1.90;;
60060;SDS011;45933;51.336;12.612;2023-05-18T03:36:16;5.90;;;1.80;;
60060;SDS011;45933;51.336;12.612;2023-05-18T03:38:41;5.93;;;2.00;;
60060;SDS011;45933;51.336;12.612;2023-05-18T03:41:09;3.70;;;1.63;;
60060;SDS011;45933;51.336;12.612;2023-05-18T03:43:35;7.70;;;1.93;;
60060;SDS011;45933;51.336;12.612;2023-05-18T03:46:00;6.17;;;1.90;;
60060;SDS011;45933;51.336;12.612;2023-05-18T03:48:26;4.57;;;1.50;;
60060;SDS011;45933;51.336;12.612;2023-05-18T03:50:51;7.00;;;1.97;;
60060;SDS011;45933;51.336;12.612;2023-05-18T03:53:16;5.37;;;1.80;;
60060;SDS011;45933;51.336;12.612;2023-05-18T03:55:43;4.30;;;1.80;;
60060;SDS011;45933;51.336;12.612;2023-05-18T03:58:13;7.10;;;2.00;;
60060;SDS011;45933;51.336;12.612;2023-05-18T04:00:38;5.93;;;1.70;;
60060;SDS011;45933;51.336;12.612;2023-05-18T04:03:04;6.50;;;1.73;;
60060;SDS011;45933;51.336;12.612;2023-05-18T04:05:30;5.80;;;2.23;;
60060;SDS011;45933;51.336;12.612;2023-05-18T04:07:55;6.90;;;2.17;;
60060;SDS011;45933;51.336;12.612;2023-05-18T04:10:23;7.87;;;2.30;;
60060;SDS011;45933;51.336;12.612;2023-05-18T04:12:48;3.93;;;1.83;;
60060;SDS011;45933;51.336;12.612;2023-05-18T04:15:14;8.07;;;2.10;;
60060;SDS011;45933;51.336;12.612;2023-05-18T04:17:39;5.50;;;1.70;;
60060;SDS011;45933;51.336;12.612;2023-05-18T04:20:10;4.97;;;1.70;;
60060;SDS011;45933;51.336;12.612;2023-05-18T04:22:40;5.77;;;1.80;;
60060;SDS011;45933;51.336;12.612;2023-05-18T04:25:13;6.77;;;2.10;;
60060;SDS011;45933;51.336;12.612;2023-05-18T04:27:39;5.13;;;2.27;;
60060;SDS011;45933;51.336;12.612;2023-05-18T04:30:12;5.20;;;1.87;;
60060;SDS011;45933;51.336;12.612;2023-05-18T04:32:38;7.67;;;2.33;;
60060;SDS011;45933;51.336;12.612;2023-05-18T04:35:06;6.30;;;1.80;;
60060;SDS011;45933;51.336;12.612;2023-05-18T04:37:33;5.03;;;1.87;;
60060;SDS011;45933;51.336;12.612;2023-05-18T04:39:59;5.93;;;2.30;;
60060;SDS011;45933;51.336;12.612;2023-05-18T04:42:29;7.37;;;2.20;;
60060;SDS011;45933;51.336;12.612;2023-05-18T04:44:54;9.33;;;2.50;;
60060;SDS011;45933;51.336;12.612;2023-05-18T04:47:20;7.07;;;2.07;;
60060;SDS011;45933;51.336;12.612;2023-05-18T04:49:48;6.40;;;1.80;;
60060;SDS011;45933;51.336;12.612;2023-05-18T04:52:16;6.30;;;2.00;;
60060;SDS011;45933;51.336;12.612;2023-05-18T04:54:41;7.00;;;1.60;;
60060;SDS011;45933;51.336;12.612;2023-05-18T04:57:07;10.53;;;2.70;;
60060;SDS011;45933;51.336;12.612;2023-05-18T04:59:32;8.10;;;1.97;;
60060;SDS011;45933;51.336;12.612;2023-05-18T05:02:01;8.00;;;2.60;;
60060;SDS011;45933;51.336;12.612;2023-05-18T05:04:28;8.03;;;2.30;;
60060;SDS011;45933;51.336;12.612;2023-05-18T05:06:53;13.10;;;2.40;;
60060;SDS011;45933;51.336;12.612;2023-05-18T05:09:19;6.90;;;2.30;;
60060;SDS011;45933;51.336;12.612;2023-05-18T05:11:44;6.87;;;2.10;;
60060;SDS011;45933;51.336;12.612;2023-05-18T05:14:10;4.83;;;1.80;;
60060;SDS011;45933;51.336;12.612;2023-05-18T05:16:35;6.87;;;1.87;;
60060;SDS011;45933;51.336;12.612;2023-05-18T05:19:01;8.17;;;2.10;;
60060;SDS011;45933;51.336;12.612;2023-05-18T05:21:26;8.30;;;2.40;;
60060;SDS011;45933;51.336;12.612;2023-05-18T05:23:52;10.27;;;2.23;;
60060;SDS011;45933;51.336;12.612;2023-05-18T05:26:18;7.80;;;2.20;;
60060;SDS011;45933;51.336;12.612;2023-05-18T05:28:43;6.90;;;2.10;;
60060;SDS011;45933;51.336;12.612;2023-05-18T05:31:09;6.63;;;1.90;;
60060;SDS011;45933;51.336;12.612;2023-05-18T05:33:34;11.30;;;2.43;;
60060;SDS011;45933;51.336;12.612;2023-05-18T05:36:00;7.33;;;2.20;;
60060;SDS011;45933;51.336;12.612;2023-05-18T05:38:25;5.10;;;2.20;;
60060;SDS011;45933;51.336;12.612;2023-05-18T05:40:51;7.80;;;2.30;;
60060;SDS011;45933;51.336;12.612;2023-05-18T05:43:16;7.57;;;2.10;;
60060;SDS011;45933;51.336;12.612;2023-05-18T05:45:41;5.53;;;1.97;;
60060;SDS011;45933;51.336;12.612;2023-05-18T05:48:09;7.77;;;2.20;;
60060;SDS011;45933;51.336;12.612;2023-05-18T05:50:34;6.13;;;1.97;;
60060;SDS011;45933;51.336;12.612;2023-05-18T05:53:00;6.97;;;2.20;;
60060;SDS011;45933;51.336;12.612;2023-05-18T05:55:25;6.10;;;1.70;;
60060;SDS011;45933;51.336;12.612;2023-05-18T05:57:51;9.07;;;2.07;;
60060;SDS011;45933;51.336;12.612;2023-05-18T06:00:16;6.77;;;1.90;;
60060;SDS011;45933;51.336;12.612;2023-05-18T06:02:41;7.13;;;1.97;;
60060;SDS011;45933;51.336;12.612;2023-05-18T06:05:07;8.10;;;2.00;;
60060;SDS011;45933;51.336;12.612;2023-05-18T06:07:33;4.60;;;2.00;;
60060;SDS011;45933;51.336;12.612;2023-05-18T06:09:58;8.67;;;1.90;;
60060;SDS011;45933;51.336;12.612;2023-05-18T06:12:23;4.73;;;2.20;;
60060;SDS011;45933;51.336;12.612;2023-05-18T06:14:49;7.57;;;1.97;;
60060;SDS011;45933;51.336;12.612;2023-05-18T06:17:18;8.70;;;2.27;;
60060;SDS011;45933;51.336;12.612;2023-05-18T06:19:43;6.20;;;2.00;;
60060;SDS011;45933;51.336;12.612;2023-05-18T06:22:08;8.17;;;2.13;;
60060;SDS011;45933;51.336;12.612;2023-05-18T06:24:34;5.63;;;1.90;;
60060;SDS011;45933;51.336;12.612;2023-05-18T06:27:00;7.57;;;2.10;;
60060;SDS011;45933;51.336;12.612;2023-05-18T06:29:25;6.80;;;2.00;;
60060;SDS011;45933;51.336;12.612;2023-05-18T06:31:50;8.27;;;2.10;;
60060;SDS011;45933;51.336;12.612;2023-05-18T06:34:16;9.13;;;2.23;;
60060;SDS011;45933;51.336;12.612;2023-05-18T06:36:41;7.17;;;2.30;;
60060;SDS011;45933;51.336;12.612;2023-05-18T06:39:06;5.87;;;2.10;;
60060;SDS011;45933;51.336;12.612;2023-05-18T06:41:32;7.57;;;2.63;;
60060;SDS011;45933;51.336;12.612;2023-05-18T06:43:57;8.97;;;2.47;;
60060;SDS011;45933;51.336;12.612;2023-05-18T06:46:24;10.90;;;2.43;;
60060;SDS011;45933;51.336;12.612;2023-05-18T06:48:50;6.63;;;2.17;;
60060;SDS011;45933;51.336;12.612;2023-05-18T06:51:16;6.57;;;2.30;;
60060;SDS011;45933;51.336;12.612;2023-05-18T06:53:41;9.00;;;2.57;;
60060;SDS011;45933;51.336;12.612;2023-05-18T06:56:07;8.23;;;2.17;;
60060;SDS011;45933;51.336;12.612;2023-05-18T06:58:32;7.70;;;2.23;;
60060;SDS011;45933;51.336;12.612;2023-05-18T07:00:58;10.57;;;2.37;;
60060;SDS011;45933;51.336;12.612;2023-05-18T07:03:26;8.40;;;1.97;;
60060;SDS011;45933;51.336;12.612;2023-05-18T07:05:52;7.93;;;1.83;;
60060;SDS011;45933;51.336;12.612;2023-05-18T07:08:17;4.87;;;1.63;;
60060;SDS011;45933;51.336;12.612;2023-05-18T07:10:42;11.77;;;1.93;;
60060;SDS011;45933;51.336;12.612;2023-05-18T07:13:07;9.90;;;2.50;;
60060;SDS011;45933;51.336;12.612;2023-05-18T07:15:33;6.40;;;2.03;;
60060;SDS011;45933;51.336;12.612;2023-05-18T07:17:58;6.80;;;2.13;;
60060;SDS011;45933;51.336;12.612;2023-05-18T07:20:23;7.50;;;2.40;;
60060;SDS011;45933;51.336;12.612;2023-05-18T07:22:49;7.80;;;2.50;;
60060;SDS011;45933;51.336;12.612;2023-05-18T07:25:14;5.70;;;1.83;;
60060;SDS011;45933;51.336;12.612;2023-05-18T07:27:40;6.67;;;1.87;;
60060;SDS011;45933;51.336;12.612;2023-05-18T07:30:06;4.13;;;1.80;;
60060;SDS011;45933;51.336;12.612;2023-05-18T07:32:32;8.90;;;2.20;;
60060;SDS011;45933;51.336;12.612;2023-05-18T07:34:57;6.00;;;1.70;;
60060;SDS011;45933;51.336;12.612;2023-05-18T07:37:23;6.43;;;2.03;;
60060;SDS011;45933;51.336;12.612;2023-05-18T07:39:48;7.25;;;2.28;;
60060;SDS011;45933;51.336;12.612;2023-05-18T07:42:13;8.38;;;2.15;;
60060;SDS011;45933;51.336;12.612;2023-05-18T07:44:38;7.22;;;2.00;;
60060;SDS011;45933;51.336;12.612;2023-05-18T07:47:04;7.50;;;2.10;;
60060;SDS011;45933;51.336;12.612;2023-05-18T07:49:29;5.28;;;1.60;;
60060;SDS011;45933;51.336;12.612;2023-05-18T07:51:55;6.43;;;1.83;;
60060;SDS011;45933;51.336;12.612;2023-05-18T07:54:21;9.40;;;1.73;;
60060;SDS011;45933;51.336;12.612;2023-05-18T07:56:46;8.75;;;2.00;;
60060;SDS011;45933;51.336;12.612;2023-05-18T07:59:11;6.22;;;1.70;;
60060;SDS011;45933;51.336;12.612;2023-05-18T08:01:37;7.35;;;1.80;;
60060;SDS011;45933;51.336;12.612;2023-05-18T08:04:03;5.82;;;1.70;;
60060;SDS011;45933;51.336;12.612;2023-05-18T08:06:28;4.55;;;1.60;;
60060;SDS011;45933;51.336;12.612;2023-05-18T08:08:56;9.77;;;1.98;;
60060;SDS011;45933;51.336;12.612;2023-05-18T08:11:22;6.22;;;1.73;;
60060;SDS011;45933;51.336;12.612;2023-05-18T08:13:48;5.13;;;1.45;;
60060;SDS011;45933;51.336;12.612;2023-05-18T08:16:13;6.28;;;1.60;;
60060;SDS011;45933;51.336;12.612;2023-05-18T08:18:38;4.88;;;1.50;;
60060;SDS011;45933;51.336;12.612;2023-05-18T08:21:04;8.27;;;2.03;;
60060;SDS011;45933;51.336;12.612;2023-05-18T08:23:32;6.40;;;1.70;;
60060;SDS011;45933;51.336;12.612;2023-05-18T08:25:57;7.97;;;2.33;;
60060;SDS011;45933;51.336;12.612;2023-05-18T08:28:24;6.75;;;2.08;;
60060;SDS011;45933;51.336;12.612;2023-05-18T08:30:49;5.45;;;1.20;;
60060;SDS011;45933;51.336;12.612;2023-05-18T08:33:15;6.53;;;1.67;;
60060;SDS011;45933;51.336;12.612;2023-05-18T08:35:41;5.05;;;1.30;;
60060;SDS011;45933;51.336;12.612;2023-05-18T08:38:06;5.75;;;1.88;;
60060;SDS011;45933;51.336;12.612;2023-05-18T08:40:34;5.13;;;1.45;;
60060;SDS011;45933;51.336;12.612;2023-05-18T08:43:06;8.82;;;1.98;;
60060;SDS011;45933;51.336;12.612;2023-05-18T08:45:39;6.90;;;1.55;;
60060;SDS011;45933;51.336;12.612;2023-05-18T08:48:07;7.22;;;1.55;;
60060;SDS011;45933;51.336;12.612;2023-05-18T08:50:35;8.30;;;1.52;;
60060;SDS011;45933;51.336;12.612;2023-05-18T08:53:03;7.40;;;1.67;;
60060;SDS011;45933;51.336;12.612;2023-05-18T08:55:30;3.22;;;1.30;;
60060;SDS011;45933;51.336;12.612;2023-05-18T08:58:00;7.53;;;1.90;;
60060;SDS011;45933;51.336;12.612;2023-05-18T09:00:27;6.13;;;1.70;;
60060;SDS011;45933;51.336;12.612;2023-05-18T09:02:53;6.43;;;1.50;;
60060;SDS011;45933;51.336;12.612;2023-05-18T09:05:19;5.78;;;1.70;;
60060;SDS011;45933;51.336;12.612;2023-05-18T09:07:45;5.32;;;1.75;;
60060;SDS011;45933;51.336;12.612;2023-05-18T09:10:11;5.22;;;1.58;;
60060;SDS011;45933;51.336;12.612;2023-05-18T09:12:38;4.32;;;1.55;;
60060;SDS011;45933;51.336;12.612;2023-05-18T09:15:09;4.43;;;1.50;;
60060;SDS011;45933;51.336;12.612;2023-05-18T09:17:35;6.80;;;1.70;;
60060;SDS011;45933;51.336;12.612;2023-05-18T09:20:01;4.15;;;1.60;;
60060;SDS011;45933;51.336;12.612;2023-05-18T09:22:29;5.60;;;1.48;;
60060;SDS011;45933;51.336;12.612;2023-05-18T09:24:55;4.45;;;1.52;;
60060;SDS011;45933;51.336;12.612;2023-05-18T09:27:20;4.45;;;1.25;;
60060;SDS011;45933;51.336;12.612;2023-05-18T09:29:52;6.07;;;1.77;;
60060;SDS011;45933;51.336;12.612;2023-05-18T09:32:20;3.97;;;1.40;;
60060;SDS011;45933;51.336;12.612;2023-05-18T09:34:46;5.13;;;1.60;;
60060;SDS011;45933;51.336;12.612;2023-05-18T09:37:14;4.20;;;1.35;;
60060;SDS011;45933;51.336;12.612;2023-05-18T09:39:43;5.22;;;1.55;;
60060;SDS011;45933;51.336;12.612;2023-05-18T09:42:09;3.75;;;1.65;;
60060;SDS011;45933;51.336;12.612;2023-05-18T09:44:36;5.78;;;2.15;;
60060;SDS011;45933;51.336;12.612;2023-05-18T09:47:03;6.45;;;1.55;;
60060;SDS011;45933;51.336;12.612;2023-05-18T09:49:32;3.85;;;1.20;;
60060;SDS011;45933;51.336;12.612;2023-05-18T09:51:57;3.15;;;1.20;;
60060;SDS011;45933;51.336;12.612;2023-05-18T09:54:24;4.75;;;1.45;;
60060;SDS011;45933;51.336;12.612;2023-05-18T09:56:49;3.92;;;1.33;;
60060;SDS011;45933;51.336;12.612;2023-05-18T09:59:15;3.80;;;1.38;;
60060;SDS011;45933;51.336;12.612;2023-05-18T10:04:39;5.53;;;1.70;;
60060;SDS011;45933;51.336;12.612;2023-05-18T10:07:12;11.68;;;1.60;;
60060;SDS011;45933;51.336;12.612;2023-05-18T10:09:39;4.68;;;1.50;;
60060;SDS011;45933;51.336;12.612;2023-05-18T10:12:09;4.40;;;1.40;;
60060;SDS011;45933;51.336;12.612;2023-05-18T10:14:46;3.92;;;1.58;;
60060;SDS011;45933;51.336;12.612;2023-05-18T10:17:13;5.60;;;1.80;;
60060;SDS011;45933;51.336;12.612;2023-05-18T10:19:40;5.28;;;1.85;;
60060;SDS011;45933;51.336;12.612;2023-05-18T10:22:06;3.92;;;1.65;;
60060;SDS011;45933;51.336;12.612;2023-05-18T10:24:33;4.63;;;1.40;;
60060;SDS011;45933;51.336;12.612;2023-05-18T10:27:00;4.78;;;1.38;;
60060;SDS011;45933;51.336;12.612;2023-05-18T10:29:30;4.68;;;1.48;;
60060;SDS011;45933;51.336;12.612;2023-05-18T10:31:56;3.67;;;1.50;;
60060;SDS011;45933;51.336;12.612;2023-05-18T10:34:27;4.40;;;1.30;;
60060;SDS011;45933;51.336;12.612;2023-05-18T10:36:56;3.78;;;1.45;;
60060;SDS011;45933;51.336;12.612;2023-05-18T10:39:25;5.20;;;1.55;;
60060;SDS011;45933;51.336;12.612;2023-05-18T10:41:51;3.15;;;1.15;;
60060;SDS011;45933;51.336;12.612;2023-05-18T10:44:19;3.65;;;1.20;;
60060;SDS011;45933;51.336;12.612;2023-05-18T10:46:47;5.97;;;1.40;;
60060;SDS011;45933;51.336;12.612;2023-05-18T10:49:14;4.18;;;1.20;;
60060;SDS011;45933;51.336;12.612;2023-05-18T10:51:47;3.13;;;1.23;;
60060;SDS011;45933;51.336;12.612;2023-05-18T10:54:13;5.65;;;1.45;;
60060;SDS011;45933;51.336;12.612;2023-05-18T10:56:42;4.55;;;1.25;;
60060;SDS011;45933;51.336;12.612;2023-05-18T10:59:09;3.25;;;1.15;;
60060;SDS011;45933;51.336;12.612;2023-05-18T11:01:37;5.30;;;1.27;;
60060;SDS011;45933;51.336;12.612;2023-05-18T11:04:06;4.95;;;1.70;;
60060;SDS011;45933;51.336;12.612;2023-05-18T11:06:31;6.13;;;1.50;;
60060;SDS011;45933;51.336;12.612;2023-05-18T11:08:58;3.00;;;1.10;;
60060;SDS011;45933;51.336;12.612;2023-05-18T11:11:24;3.58;;;1.00;;
60060;SDS011;45933;51.336;12.612;2023-05-18T11:13:53;6.25;;;1.20;;
60060;SDS011;45933;51.336;12.612;2023-05-18T11:16:31;3.80;;;1.30;;
60060;SDS011;45933;51.336;12.612;2023-05-18T11:19:03;4.43;;;1.42;;
60060;SDS011;45933;51.336;12.612;2023-05-18T11:24:16;4.47;;;1.27;;
60060;SDS011;45933;51.336;12.612;2023-05-18T11:26:42;4.22;;;1.50;;
60060;SDS011;45933;51.336;12.612;2023-05-18T11:32:19;6.85;;;1.55;;
60060;SDS011;45933;51.336;12.612;2023-05-18T11:34:46;7.43;;;1.42;;
60060;SDS011;45933;51.336;12.612;2023-05-18T11:37:15;4.57;;;1.27;;
60060;SDS011;45933;51.336;12.612;2023-05-18T11:40:01;2.63;;;1.20;;
60060;SDS011;45933;51.336;12.612;2023-05-18T11:42:32;4.43;;;1.25;;
60060;SDS011;45933;51.336;12.612;2023-05-18T11:45:04;4.53;;;1.00;;
60060;SDS011;45933;51.336;12.612;2023-05-18T11:47:33;8.13;;;1.83;;
60060;SDS011;45933;51.336;12.612;2023-05-18T11:50:00;4.85;;;1.40;;
60060;SDS011;45933;51.336;12.612;2023-05-18T11:52:26;5.45;;;1.17;;
60060;SDS011;45933;51.336;12.612;2023-05-18T11:54:52;3.45;;;1.10;;
60060;SDS011;45933;51.336;12.612;2023-05-18T11:57:19;5.05;;;1.00;;
60060;SDS011;45933;51.336;12.612;2023-05-18T11:59:53;6.13;;;1.35;;
60060;SDS011;45933;51.336;12.612;2023-05-18T12:02:26;5.13;;;1.33;;
60060;SDS011;45933;51.336;12.612;2023-05-18T12:04:59;5.05;;;1.30;;
60060;SDS011;45933;51.336;12.612;2023-05-18T12:07:26;4.10;;;1.20;;
60060;SDS011;45933;51.336;12.612;2023-05-18T12:09:56;4.05;;;1.30;;
60060;SDS011;45933;51.336;12.612;2023-05-18T12:12:22;7.03;;;1.20;;
60060;SDS011;45933;51.336;12.612;2023-05-18T12:14:58;6.22;;;1.40;;
60060;SDS011;45933;51.336;12.612;2023-05-18T12:17:41;3.85;;;1.60;;
60060;SDS011;45933;51.336;12.612;2023-05-18T12:20:13;5.90;;;1.20;;
60060;SDS011;45933;51.336;12.612;2023-05-18T12:22:41;3.97;;;1.42;;
60060;SDS011;45933;51.336;12.612;2023-05-18T12:25:11;4.32;;;1.77;;
60060;SDS011;45933;51.336;12.612;2023-05-18T12:27:40;9.02;;;1.77;;
60060;SDS011;45933;51.336;12.612;2023-05-18T12:30:08;4.72;;;1.17;;
60060;SDS011;45933;51.336;12.612;2023-05-18T12:32:44;6.72;;;1.40;;
60060;SDS011;45933;51.336;12.612;2023-05-18T12:35:13;5.45;;;1.20;;
60060;SDS011;45933;51.336;12.612;2023-05-18T12:37:45;6.38;;;1.17;;
60060;SDS011;45933;51.336;12.612;2023-05-18T12:40:12;5.75;;;1.40;;
60060;SDS011;45933;51.336;12.612;2023-05-18T12:42:38;5.05;;;1.52;;
60060;SDS011;45933;51.336;12.612;2023-05-18T12:45:04;5.72;;;1.60;;
60060;SDS011;45933;51.336;12.612;2023-05-18T12:47:31;4.55;;;1.60;;
60060;SDS011;45933;51.336;12.612;2023-05-18T12:50:00;4.55;;;1.35;;
60060;SDS011;45933;51.336;12.612;2023-05-18T12:52:26;3.92;;;1.50;;
60060;SDS011;45933;51.336;12.612;2023-05-18T12:54:55;5.68;;;1.30;;
60060;SDS011;45933;51.336;12.612;2023-05-18T12:57:27;3.60;;;1.00;;
60060;SDS011;45933;51.336;12.612;2023-05-18T12:59:55;6.40;;;1.20;;
60060;SDS011;45933;51.336;12.612;2023-05-18T13:05:15;4.15;;;1.30;;
60060;SDS011;45933;51.336;12.612;2023-05-18T13:07:48;6.80;;;1.95;;
60060;SDS011;45933;51.336;12.612;2023-05-18T13:10:15;5.45;;;1.15;;
60060;SDS011;45933;51.336;12.612;2023-05-18T13:12:42;4.97;;;1.40;;
60060;SDS011;45933;51.336;12.612;2023-05-18T13:15:09;4.18;;;1.70;;
60060;SDS011;45933;51.336;12.612;2023-05-18T13:17:36;7.63;;;1.63;;
60060;SDS011;45933;51.336;12.612;2023-05-18T13:20:02;4.15;;;1.80;;
60060;SDS011;45933;51.336;12.612;2023-05-18T13:22:29;5.25;;;1.67;;
60060;SDS011;45933;51.336;12.612;2023-05-18T13:24:55;3.80;;;1.27;;
60060;SDS011;45933;51.336;12.612;2023-05-18T13:27:20;3.47;;;1.30;;
60060;SDS011;45933;51.336;12.612;2023-05-18T13:29:45;3.38;;;1.30;;
60060;SDS011;45933;51.336;12.612;2023-05-18T13:32:13;4.10;;;1.35;;
60060;SDS011;45933;51.336;12.612;2023-05-18T13:34:38;4.45;;;1.30;;
60060;SDS011;45933;51.336;12.612;2023-05-18T13:37:04;5.97;;;1.65;;
60060;SDS011;45933;51.336;12.612;2023-05-18T13:39:29;4.75;;;1.48;;
60060;SDS011;45933;51.336;12.612;2023-05-18T13:41:54;3.20;;;1.10;;
60060;SDS011;45933;51.336;12.612;2023-05-18T13:44:20;4.85;;;1.23;;
60060;SDS011;45933;51.336;12.612;2023-05-18T13:46:45;4.10;;;1.42;;
60060;SDS011;45933;51.336;12.612;2023-05-18T13:49:11;3.60;;;1.45;;
60060;SDS011;45933;51.336;12.612;2023-05-18T13:51:37;3.53;;;1.42;;
60060;SDS011;45933;51.336;12.612;2023-05-18T13:54:02;4.70;;;1.88;;
60060;SDS011;45933;51.336;12.612;2023-05-18T13:56:28;3.65;;;1.40;;
60060;SDS011;45933;51.336;12.612;2023-05-18T13:58:53;5.43;;;1.20;;
60060;SDS011;45933;51.336;12.612;2023-05-18T14:01:18;3.28;;;1.10;;
60060;SDS011;45933;51.336;12.612;2023-05-18T14:03:46;4.18;;;1.48;;
60060;SDS011;45933;51.336;12.612;2023-05-18T14:06:11;4.55;;;1.30;;
60060;SDS011;45933;51.336;12.612;2023-05-18T14:08:36;3.42;;;1.00;;
60060;SDS011;45933;51.336;12.612;2023-05-18T14:11:01;4.28;;;1.40;;
60060;SDS011;45933;51.336;12.612;2023-05-18T14:13:27;4.82;;;1.50;;
60060;SDS011;45933;51.336;12.612;2023-05-18T14:15:52;3.08;;;1.30;;
60060;SDS011;45933;51.336;12.612;2023-05-18T14:18:17;5.70;;;1.45;;
60060;SDS011;45933;51.336;12.612;2023-05-18T14:20:43;4.18;;;1.30;;
60060;SDS011;45933;51.336;12.612;2023-05-18T14:23:08;3.25;;;1.15;;
60060;SDS011;45933;51.336;12.612;2023-05-18T14:25:33;4.68;;;1.23;;
60060;SDS011;45933;51.336;12.612;2023-05-18T14:27:59;4.97;;;1.30;;
60060;SDS011;45933;51.336;12.612;2023-05-18T14:30:24;4.05;;;1.15;;
60060;SDS011;45933;51.336;12.612;2023-05-18T14:32:49;4.32;;;1.27;;
60060;SDS011;45933;51.336;12.612;2023-05-18T14:35:15;4.53;;;1.50;;
60060;SDS011;45933;51.336;12.612;2023-05-18T14:37:40;2.92;;;1.10;;
60060;SDS011;45933;51.336;12.612;2023-05-18T14:40:06;4.68;;;1.60;;
60060;SDS011;45933;51.336;12.612;2023-05-18T14:42:31;3.58;;;1.27;;
60060;SDS011;45933;51.336;12.612;2023-05-18T14:44:57;3.42;;;1.30;;
60060;SDS011;45933;51.336;12.612;2023-05-18T14:47:22;4.60;;;1.63;;
60060;SDS011;45933;51.336;12.612;2023-05-18T14:49:47;4.65;;;1.20;;
60060;SDS011;45933;51.336;12.612;2023-05-18T14:52:13;3.15;;;1.10;;
60060;SDS011;45933;51.336;12.612;2023-05-18T14:54:38;3.78;;;1.35;;
60060;SDS011;45933;51.336;12.612;2023-05-18T14:57:04;7.80;;;1.80;;
60060;SDS011;45933;51.336;12.612;2023-05-18T14:59:29;3.90;;;1.30;;